Time;durP1;ratioP1;P1;durP2;ratioP2;P2;SDS_P1;SDS_P2;PMS_P1;PMS_P2;Temp;Humidity;BMP_temperature;BMP_pressure;BME280_temperature;BME280_humidity;BME280_pressure;Samples;Min_cycle;Max_cycle;Signal;HPM_P1;HPM_P2
2023/08/05 00:01:09;;;;;;;;;;;16.10;99.90;;;;;;5005963;28;19952;-77
2023/08/05 00:03:35;;;;;;;;;;;16.10;99.90;;;;;;5006272;28;19985;-77
2023/08/05 00:06:03;;;;;;;;;;;16.10;99.90;;;;;;5002802;28;20205;-77
2023/08/05 00:08:30;;;;;;;;;;;16.00;99.90;;;;;;5007111;28;20172;-77
2023/08/05 00:10:56;;;;;;;;;;;16.00;99.90;;;;;;5006807;28;19984;-77
2023/08/05 00:13:23;;;;;;;;;;;16.00;99.90;;;;;;5006331;28;20214;-76
2023/08/05 00:15:51;;;;;;;;;;;16.00;99.90;;;;;;5006464;28;19961;-76
2023/08/05 00:18:17;;;;;;;;;;;16.00;99.90;;;;;;5006408;28;19989;-77
2023/08/05 00:20:44;;;;;;;;;;;16.00;99.90;;;;;;5006575;28;19921;-77
2023/08/05 00:23:11;;;;;;;;;;;16.00;99.90;;;;;;5007209;28;19921;-77
2023/08/05 00:25:37;;;;;;;;;;;16.00;99.90;;;;;;5006632;28;20154;-77
2023/08/05 00:28:04;;;;;;;;;;;16.00;99.90;;;;;;5006137;28;19981;-77
2023/08/05 00:30:30;;;;;;;;;;;16.00;99.90;;;;;;5006794;28;19993;-77
2023/08/05 00:32:58;;;;;;;;;;;16.00;99.90;;;;;;5006903;28;19985;-76
2023/08/05 00:35:25;;;;;;;;;;;16.00;99.90;;;;;;5006876;28;19953;-76
2023/08/05 00:37:52;;;;;;;;;;;16.00;99.90;;;;;;5006333;28;19928;-77
2023/08/05 00:40:18;;;;;;;;;;;15.90;99.90;;;;;;5006708;28;19953;-76
2023/08/05 00:42:45;;;;;;;;;;;16.00;99.90;;;;;;5005638;28;19985;-78
2023/08/05 00:45:12;;;;;;;;;;;15.90;99.90;;;;;;5007830;28;20181;-77
2023/08/05 00:47:38;;;;;;;;;;;15.90;99.90;;;;;;5006787;28;20232;-77
2023/08/05 00:50:07;;;;;;;;;;;15.90;99.90;;;;;;5007406;28;19989;-78
2023/08/05 00:52:33;;;;;;;;;;;15.90;99.90;;;;;;5007195;28;19944;-77
2023/08/05 00:55:00;;;;;;;;;;;15.90;99.90;;;;;;5007271;28;19956;-77
2023/08/05 00:57:27;;;;;;;;;;;15.90;99.90;;;;;;5006612;28;19937;-77
2023/08/05 00:59:53;;;;;;;;;;;15.90;99.90;;;;;;5006152;28;20178;-76
2023/08/05 01:02:20;;;;;;;;;;;15.90;99.90;;;;;;5006134;28;19921;-77
2023/08/05 01:04:56;;;;;;;;;;;15.90;99.90;;;;;;5003663;28;20102;-77
2023/08/05 01:07:24;;;;;;;;;;;16.00;99.90;;;;;;5005767;28;19988;-76
2023/08/05 01:09:51;;;;;;;;;;;16.00;99.90;;;;;;5005759;28;20248;-76
2023/08/05 01:12:17;;;;;;;;;;;15.90;99.90;;;;;;5005465;28;20017;-77
2023/08/05 01:14:44;;;;;;;;;;;15.90;99.90;;;;;;5005952;28;19993;-77
2023/08/05 01:17:10;;;;;;;;;;;16.00;99.90;;;;;;4997062;28;20185;-77
2023/08/05 01:19:37;;;;;;;;;;;16.00;99.90;;;;;;4986486;28;19993;-78
2023/08/05 01:22:09;;;;;;;;;;;16.00;99.90;;;;;;4986407;28;19949;-77
2023/08/05 01:24:40;;;;;;;;;;;16.00;99.90;;;;;;4986669;28;19930;-78
2023/08/05 01:27:09;;;;;;;;;;;16.00;99.90;;;;;;4985565;28;19922;-77
2023/08/05 01:29:35;;;;;;;;;;;16.00;99.90;;;;;;5008903;28;19988;-78
2023/08/05 01:32:02;;;;;;;;;;;16.00;99.90;;;;;;5013673;28;19936;-78
2023/08/05 01:34:30;;;;;;;;;;;16.00;99.90;;;;;;5015087;28;20007;-78
2023/08/05 01:36:56;;;;;;;;;;;16.00;99.90;;;;;;5009525;28;20205;-77
2023/08/05 01:39:23;;;;;;;;;;;16.00;99.90;;;;;;5005422;28;19953;-78
2023/08/05 01:41:49;;;;;;;;;;;16.00;99.90;;;;;;5005937;28;19928;-77
2023/08/05 01:44:17;;;;;;;;;;;15.90;99.90;;;;;;5005946;28;19922;-77
2023/08/05 01:46:44;;;;;;;;;;;15.90;99.90;;;;;;5005405;28;19949;-78
2023/08/05 01:49:10;;;;;;;;;;;15.90;99.90;;;;;;5006034;28;20347;-78
2023/08/05 01:51:37;;;;;;;;;;;15.90;99.90;;;;;;5005879;28;19953;-77
2023/08/05 01:54:04;;;;;;;;;;;15.80;99.90;;;;;;5006158;28;20012;-77
2023/08/05 01:56:30;;;;;;;;;;;15.80;99.90;;;;;;5005190;28;19922;-77
2023/08/05 01:58:57;;;;;;;;;;;15.80;99.90;;;;;;5004341;28;19921;-77
2023/08/05 02:01:39;;;;;;;;;;;15.80;99.90;;;;;;5003521;28;19988;-77
2023/08/05 02:04:06;;;;;;;;;;;15.80;99.90;;;;;;5006595;28;20261;-78
2023/08/05 02:06:35;;;;;;;;;;;15.80;99.90;;;;;;5007171;28;19957;-78
2023/08/05 02:09:01;;;;;;;;;;;15.80;99.90;;;;;;5010637;28;19984;-76
2023/08/05 02:11:28;;;;;;;;;;;15.80;99.90;;;;;;5008886;28;20260;-77
2023/08/05 02:13:54;;;;;;;;;;;15.80;99.90;;;;;;5006567;28;20000;-77
2023/08/05 02:16:21;;;;;;;;;;;15.80;99.90;;;;;;5006346;28;19949;-77
2023/08/05 02:18:51;;;;;;;;;;;15.80;99.90;;;;;;5009971;28;19960;-77
2023/08/05 02:21:17;;;;;;;;;;;15.80;99.90;;;;;;4995605;28;19928;-77
2023/08/05 02:23:44;;;;;;;;;;;15.70;99.90;;;;;;4990249;28;19989;-77
2023/08/05 02:26:10;;;;;;;;;;;15.80;99.90;;;;;;4989705;28;19989;-77
2023/08/05 02:28:37;;;;;;;;;;;15.70;99.90;;;;;;5000425;28;19969;-77
2023/08/05 02:31:04;;;;;;;;;;;15.70;99.90;;;;;;5010216;28;19943;-78
2023/08/05 02:33:31;;;;;;;;;;;15.70;99.90;;;;;;5009751;28;19922;-77
2023/08/05 02:35:59;;;;;;;;;;;15.60;99.90;;;;;;5009703;28;19993;-77
2023/08/05 02:38:26;;;;;;;;;;;15.60;99.90;;;;;;5010523;28;20066;-78
2023/08/05 02:40:52;;;;;;;;;;;15.60;99.90;;;;;;5010043;28;19989;-78
2023/08/05 02:43:19;;;;;;;;;;;15.60;99.90;;;;;;5008950;28;19949;-78
2023/08/05 02:45:52;;;;;;;;;;;15.60;99.90;;;;;;5008446;28;20016;-76
2023/08/05 02:48:18;;;;;;;;;;;15.50;99.90;;;;;;5008819;28;20113;-77
2023/08/05 02:50:45;;;;;;;;;;;15.50;99.90;;;;;;5009312;28;19993;-77
2023/08/05 02:53:13;;;;;;;;;;;15.50;99.90;;;;;;5008774;28;20205;-77
2023/08/05 02:55:39;;;;;;;;;;;15.50;99.90;;;;;;5008927;28;19976;-76
2023/08/05 02:58:06;;;;;;;;;;;15.60;99.90;;;;;;5008676;28;19964;-77
2023/08/05 03:00:33;;;;;;;;;;;15.50;99.90;;;;;;5008587;28;19928;-76
2023/08/05 03:02:59;;;;;;;;;;;15.50;99.90;;;;;;5008977;28;19921;-77
2023/08/05 03:05:31;;;;;;;;;;;15.50;99.90;;;;;;5006686;28;19981;-77
2023/08/05 03:07:58;;;;;;;;;;;15.50;99.90;;;;;;5008347;28;19929;-77
2023/08/05 03:10:26;;;;;;;;;;;15.50;99.90;;;;;;5008629;28;19969;-76
2023/08/05 03:12:52;;;;;;;;;;;15.50;99.90;;;;;;5008683;28;19986;-76
2023/08/05 03:15:19;;;;;;;;;;;15.50;99.90;;;;;;5008004;28;19992;-77
2023/08/05 03:17:46;;;;;;;;;;;15.50;99.90;;;;;;5007951;28;20197;-77
2023/08/05 03:20:23;;;;;;;;;;;15.50;99.90;;;;;;5008243;28;20253;-77
2023/08/05 03:22:50;;;;;;;;;;;15.50;99.90;;;;;;5004619;28;20129;-77
2023/08/05 03:25:16;;;;;;;;;;;15.50;99.90;;;;;;5006851;28;19984;-76
2023/08/05 03:27:44;;;;;;;;;;;15.50;99.90;;;;;;5003704;28;19985;-77
2023/08/05 03:30:11;;;;;;;;;;;15.50;99.90;;;;;;5007322;28;19985;-76
2023/08/05 03:32:38;;;;;;;;;;;15.60;99.90;;;;;;5007433;28;19975;-77
2023/08/05 03:35:04;;;;;;;;;;;15.60;99.90;;;;;;5006654;28;19993;-76
2023/08/05 03:37:31;;;;;;;;;;;15.50;99.90;;;;;;5006360;28;20320;-76
2023/08/05 03:39:58;;;;;;;;;;;15.60;99.90;;;;;;5007162;28;19961;-77
2023/08/05 03:42:24;;;;;;;;;;;15.60;99.90;;;;;;5006911;28;20200;-76
2023/08/05 03:44:52;;;;;;;;;;;15.60;99.90;;;;;;5006802;28;19928;-76
2023/08/05 03:47:20;;;;;;;;;;;15.70;99.90;;;;;;5006108;28;19977;-76
2023/08/05 03:49:47;;;;;;;;;;;15.60;99.90;;;;;;5008240;28;19945;-77
2023/08/05 03:52:14;;;;;;;;;;;15.60;99.90;;;;;;5008213;28;20401;-77
2023/08/05 03:54:41;;;;;;;;;;;15.60;99.90;;;;;;5008049;28;19930;-77
2023/08/05 03:57:08;;;;;;;;;;;15.60;99.90;;;;;;5007117;28;19922;-77
2023/08/05 03:59:35;;;;;;;;;;;15.60;99.90;;;;;;5006632;28;19961;-77
2023/08/05 04:02:03;;;;;;;;;;;15.60;99.90;;;;;;5007638;28;20225;-77
2023/08/05 04:04:33;;;;;;;;;;;15.60;99.90;;;;;;5006207;28;19921;-77
2023/08/05 04:06:59;;;;;;;;;;;15.60;99.90;;;;;;5007102;28;20184;-76
2023/08/05 04:09:26;;;;;;;;;;;15.60;99.90;;;;;;5007905;28;19922;-78
2023/08/05 04:11:53;;;;;;;;;;;15.60;99.90;;;;;;5007430;28;20209;-77
2023/08/05 04:14:20;;;;;;;;;;;15.60;99.90;;;;;;5007918;28;20113;-77
2023/08/05 04:16:47;;;;;;;;;;;15.60;99.90;;;;;;5006350;28;19993;-77
2023/08/05 04:19:15;;;;;;;;;;;15.60;99.90;;;;;;5006263;28;19922;-77
2023/08/05 04:21:46;;;;;;;;;;;15.70;99.90;;;;;;5006033;28;19929;-77
2023/08/05 04:24:13;;;;;;;;;;;15.70;99.90;;;;;;5006036;28;19925;-77
2023/08/05 04:26:40;;;;;;;;;;;15.70;99.90;;;;;;5006040;28;19984;-76
2023/08/05 04:29:08;;;;;;;;;;;15.70;99.90;;;;;;5006912;28;19993;-76
2023/08/05 04:31:34;;;;;;;;;;;15.70;99.90;;;;;;5006960;28;19929;-77
2023/08/05 04:34:01;;;;;;;;;;;15.70;99.90;;;;;;5007512;28;19928;-77
2023/08/05 04:36:30;;;;;;;;;;;15.70;99.90;;;;;;4991943;28;19922;-77
2023/08/05 04:38:57;;;;;;;;;;;15.70;99.90;;;;;;4987858;28;19938;-77
2023/08/05 04:41:23;;;;;;;;;;;15.60;99.90;;;;;;4987509;28;19922;-77
2023/08/05 04:43:50;;;;;;;;;;;15.60;99.90;;;;;;4999371;28;19973;-78
2023/08/05 04:46:17;;;;;;;;;;;15.60;99.90;;;;;;5005590;28;19929;-76
2023/08/05 04:48:44;;;;;;;;;;;15.50;99.90;;;;;;5007099;28;19922;-77
2023/08/05 04:51:10;;;;;;;;;;;15.50;99.90;;;;;;5006776;28;20163;-78
2023/08/05 04:53:39;;;;;;;;;;;15.50;99.90;;;;;;5006343;28;19993;-78
2023/08/05 04:56:05;;;;;;;;;;;15.50;99.90;;;;;;5005341;28;19964;-77
2023/08/05 04:58:32;;;;;;;;;;;15.50;99.90;;;;;;5003671;28;20162;-76
2023/08/05 05:00:59;;;;;;;;;;;15.50;99.90;;;;;;5005477;28;19949;-78
2023/08/05 05:03:26;;;;;;;;;;;15.60;99.90;;;;;;5005067;28;19956;-77
2023/08/05 05:05:55;;;;;;;;;;;15.60;99.90;;;;;;5002688;28;19922;-77
2023/08/05 05:08:22;;;;;;;;;;;15.60;99.90;;;;;;5005593;28;19921;-77
2023/08/05 05:10:50;;;;;;;;;;;15.60;99.90;;;;;;5005640;28;19928;-77
2023/08/05 05:13:16;;;;;;;;;;;15.60;99.90;;;;;;5005365;28;19981;-76
2023/08/05 05:15:43;;;;;;;;;;;15.60;99.90;;;;;;5005101;28;20070;-76
2023/08/05 05:18:10;;;;;;;;;;;15.70;99.90;;;;;;5004915;28;19930;-77
2023/08/05 05:20:36;;;;;;;;;;;15.80;99.90;;;;;;5005456;28;19953;-76
2023/08/05 05:23:03;;;;;;;;;;;15.80;99.90;;;;;;5005493;28;19988;-77
2023/08/05 05:25:29;;;;;;;;;;;15.80;99.90;;;;;;5005642;28;19984;-76
2023/08/05 05:27:57;;;;;;;;;;;15.80;99.90;;;;;;5004215;28;19978;-76
2023/08/05 05:30:24;;;;;;;;;;;15.80;99.90;;;;;;5005298;28;19960;-78
2023/08/05 05:32:50;;;;;;;;;;;15.80;99.90;;;;;;5005881;28;20236;-77
2023/08/05 05:35:17;;;;;;;;;;;15.80;99.90;;;;;;5005818;28;19985;-77
2023/08/05 05:37:44;;;;;;;;;;;15.80;99.90;;;;;;5004701;28;19928;-77
2023/08/05 05:40:11;;;;;;;;;;;15.80;99.90;;;;;;5005182;28;20233;-76
2023/08/05 05:42:37;;;;;;;;;;;15.90;99.90;;;;;;5004904;28;19981;-76
2023/08/05 05:45:06;;;;;;;;;;;15.90;99.90;;;;;;5005416;28;19985;-78
2023/08/05 05:47:34;;;;;;;;;;;15.90;99.90;;;;;;5004685;28;19953;-77
2023/08/05 05:50:01;;;;;;;;;;;15.90;99.90;;;;;;5005503;28;19957;-77
2023/08/05 05:52:27;;;;;;;;;;;16.00;99.90;;;;;;5005180;28;20124;-77
2023/08/05 05:54:54;;;;;;;;;;;16.00;99.90;;;;;;5005358;28;19928;-77
2023/08/05 05:57:22;;;;;;;;;;;16.00;99.90;;;;;;5004383;28;19922;-77
2023/08/05 05:59:49;;;;;;;;;;;16.00;99.90;;;;;;5005133;28;19922;-78
2023/08/05 06:02:17;;;;;;;;;;;16.00;99.90;;;;;;5005570;28;19922;-77
2023/08/05 06:04:47;;;;;;;;;;;16.00;99.90;;;;;;5002503;28;20117;-77
2023/08/05 06:07:13;;;;;;;;;;;16.10;99.90;;;;;;5004838;28;19929;-78
2023/08/05 06:09:40;;;;;;;;;;;16.10;99.90;;;;;;5004701;28;20248;-77
2023/08/05 06:12:09;;;;;;;;;;;16.10;99.90;;;;;;5004836;28;19921;-77
2023/08/05 06:14:36;;;;;;;;;;;16.10;99.90;;;;;;5003958;28;19926;-78
2023/08/05 06:17:03;;;;;;;;;;;16.10;99.90;;;;;;5004630;28;20149;-78
2023/08/05 06:19:31;;;;;;;;;;;16.10;99.90;;;;;;5005229;28;19960;-78
2023/08/05 06:21:58;;;;;;;;;;;16.10;99.90;;;;;;5005261;28;19989;-78
2023/08/05 06:24:24;;;;;;;;;;;16.20;99.90;;;;;;5005209;28;20177;-78
2023/08/05 06:26:51;;;;;;;;;;;16.20;99.90;;;;;;5004591;28;19957;-78
2023/08/05 06:29:17;;;;;;;;;;;16.10;99.90;;;;;;5004201;28;19921;-77
2023/08/05 06:31:44;;;;;;;;;;;16.10;99.90;;;;;;5004928;28;20170;-77
2023/08/05 06:34:10;;;;;;;;;;;16.10;99.90;;;;;;5004763;28;19988;-77
2023/08/05 06:36:38;;;;;;;;;;;16.20;99.90;;;;;;5004815;28;19922;-80
2023/08/05 06:39:05;;;;;;;;;;;16.20;99.90;;;;;;5006015;28;19981;-76
2023/08/05 06:41:32;;;;;;;;;;;16.20;99.90;;;;;;5004573;28;19921;-76
2023/08/05 06:43:58;;;;;;;;;;;16.20;99.90;;;;;;5004688;28;19949;-76
2023/08/05 06:46:25;;;;;;;;;;;16.20;99.90;;;;;;5003606;28;19945;-76
2023/08/05 06:48:52;;;;;;;;;;;16.30;99.90;;;;;;5004399;28;19928;-77
2023/08/05 06:51:18;;;;;;;;;;;16.30;99.90;;;;;;5006919;28;19922;-76
2023/08/05 06:53:46;;;;;;;;;;;16.30;99.90;;;;;;5008039;28;19964;-79
2023/08/05 06:56:13;;;;;;;;;;;16.30;99.90;;;;;;5007063;28;19972;-78
2023/08/05 06:58:40;;;;;;;;;;;16.40;99.90;;;;;;5007861;28;19922;-77
2023/08/05 07:04:09;;;;;;;;;;;16.40;99.90;;;;;;5007852;28;20219;-77
2023/08/05 07:06:36;;;;;;;;;;;16.50;99.90;;;;;;5007080;28;19996;-77
2023/08/05 07:09:04;;;;;;;;;;;16.60;99.90;;;;;;5007759;28;19988;-77
2023/08/05 07:11:31;;;;;;;;;;;16.60;99.90;;;;;;5007593;28;20021;-77
2023/08/05 07:13:57;;;;;;;;;;;16.70;99.90;;;;;;5007307;28;19922;-77
2023/08/05 07:16:24;;;;;;;;;;;16.70;99.90;;;;;;5006989;28;19989;-78
2023/08/05 07:18:50;;;;;;;;;;;16.80;99.90;;;;;;5007999;28;19988;-77
2023/08/05 07:21:17;;;;;;;;;;;16.80;99.90;;;;;;5007360;28;20005;-78
2023/08/05 07:23:44;;;;;;;;;;;16.90;99.90;;;;;;4990303;28;20214;-79
2023/08/05 07:26:12;;;;;;;;;;;16.90;99.90;;;;;;4990183;28;19922;-79
2023/08/05 07:28:38;;;;;;;;;;;16.90;99.90;;;;;;5000689;28;19950;-77
2023/08/05 07:31:05;;;;;;;;;;;17.00;99.90;;;;;;5009095;28;19928;-78
2023/08/05 07:33:32;;;;;;;;;;;17.00;99.90;;;;;;5008548;28;20009;-78
2023/08/05 07:36:07;;;;;;;;;;;17.00;99.90;;;;;;5007995;28;19993;-78
2023/08/05 07:38:35;;;;;;;;;;;17.10;99.90;;;;;;5008927;28;19957;-77
2023/08/05 07:41:01;;;;;;;;;;;17.10;99.90;;;;;;5008655;28;19993;-79
2023/08/05 07:43:32;;;;;;;;;;;17.20;99.90;;;;;;5005147;28;19989;-79
2023/08/05 07:45:59;;;;;;;;;;;17.30;99.90;;;;;;5006639;28;19934;-78
2023/08/05 07:48:27;;;;;;;;;;;17.30;99.90;;;;;;5003252;28;19993;-79
2023/08/05 07:50:53;;;;;;;;;;;17.30;99.90;;;;;;4995693;28;19960;-79
2023/08/05 07:53:23;;;;;;;;;;;17.40;99.90;;;;;;5008676;28;20123;-78
2023/08/05 07:55:52;;;;;;;;;;;17.40;99.90;;;;;;5001940;28;19968;-78
2023/08/05 07:58:19;;;;;;;;;;;17.40;99.90;;;;;;4998889;28;19928;-78
2023/08/05 08:00:47;;;;;;;;;;;17.50;99.90;;;;;;5006392;28;19928;-78
2023/08/05 08:03:13;;;;;;;;;;;17.50;99.90;;;;;;4994789;28;19954;-77
2023/08/05 08:05:40;;;;;;;;;;;17.60;99.90;;;;;;5003653;28;19985;-77
2023/08/05 08:08:07;;;;;;;;;;;17.60;99.90;;;;;;5003728;28;19988;-77
2023/08/05 08:10:33;;;;;;;;;;;17.70;99.90;;;;;;5006259;28;19953;-77
2023/08/05 08:13:01;;;;;;;;;;;17.70;99.90;;;;;;4993235;28;20172;-77
2023/08/05 08:15:28;;;;;;;;;;;17.70;99.90;;;;;;5005557;28;20256;-77
2023/08/05 08:17:56;;;;;;;;;;;17.70;99.90;;;;;;5005438;28;19922;-77
2023/08/05 08:20:22;;;;;;;;;;;17.70;99.90;;;;;;5005681;28;20264;-77
2023/08/05 08:22:49;;;;;;;;;;;17.70;99.90;;;;;;5000672;28;20182;-77
2023/08/05 08:25:15;;;;;;;;;;;17.80;99.90;;;;;;4986524;28;19922;-77
2023/08/05 08:27:42;;;;;;;;;;;17.90;99.90;;;;;;4999752;28;19953;-78
2023/08/05 08:30:11;;;;;;;;;;;17.90;99.90;;;;;;5005615;28;20231;-78
2023/08/05 08:32:38;;;;;;;;;;;17.90;99.90;;;;;;4997728;28;19933;-81
2023/08/05 08:35:08;;;;;;;;;;;17.90;99.90;;;;;;4992350;28;20139;-79
2023/08/05 08:37:35;;;;;;;;;;;17.90;99.90;;;;;;4989063;28;19949;-79
2023/08/05 08:40:02;;;;;;;;;;;18.00;99.90;;;;;;5005374;28;19953;-77
2023/08/05 08:42:31;;;;;;;;;;;18.00;99.90;;;;;;5005500;28;19922;-77
2023/08/05 08:44:57;;;;;;;;;;;18.00;99.90;;;;;;5004616;28;19921;-78
2023/08/05 08:47:24;;;;;;;;;;;18.00;99.90;;;;;;5004953;28;19953;-78
2023/08/05 08:49:51;;;;;;;;;;;18.10;99.90;;;;;;5005958;28;19953;-77
2023/08/05 08:52:20;;;;;;;;;;;18.10;99.90;;;;;;5005957;28;19922;-78
2023/08/05 08:54:49;;;;;;;;;;;18.20;99.90;;;;;;5005914;28;19921;-77
2023/08/05 08:57:16;;;;;;;;;;;18.30;99.90;;;;;;5005548;28;19949;-76
2023/08/05 08:59:42;;;;;;;;;;;18.30;99.90;;;;;;5005189;28;19985;-78
2023/08/05 09:02:11;;;;;;;;;;;18.30;99.90;;;;;;5006424;28;19953;-77
2023/08/05 09:04:39;;;;;;;;;;;18.40;99.90;;;;;;5005696;28;19934;-77
2023/08/05 09:07:26;;;;;;;;;;;18.40;99.90;;;;;;5002993;28;19994;-77
2023/08/05 09:09:54;;;;;;;;;;;18.40;99.90;;;;;;5006864;28;19953;-78
2023/08/05 09:12:22;;;;;;;;;;;18.40;99.90;;;;;;5005015;28;19936;-78
2023/08/05 09:14:52;;;;;;;;;;;18.50;99.90;;;;;;5010816;28;19980;-80
2023/08/05 09:17:18;;;;;;;;;;;18.50;99.90;;;;;;5007071;28;19951;-79
2023/08/05 09:19:45;;;;;;;;;;;18.50;99.90;;;;;;5008269;28;19954;-78
2023/08/05 09:22:13;;;;;;;;;;;18.50;99.90;;;;;;5006574;28;19993;-79
2023/08/05 09:24:41;;;;;;;;;;;18.60;99.90;;;;;;5007166;28;19944;-78
2023/08/05 09:27:07;;;;;;;;;;;18.60;99.90;;;;;;5001919;28;19986;-80
2023/08/05 09:29:36;;;;;;;;;;;18.60;99.90;;;;;;5004761;28;19957;-77
2023/08/05 09:32:03;;;;;;;;;;;18.70;99.90;;;;;;5006216;28;21451;-78
2023/08/05 09:34:33;;;;;;;;;;;18.70;99.90;;;;;;5005905;28;20280;-79
2023/08/05 09:37:00;;;;;;;;;;;18.80;99.90;;;;;;5005622;28;19921;-78
2023/08/05 09:39:30;;;;;;;;;;;18.80;99.90;;;;;;5006663;28;19945;-77
2023/08/05 09:41:59;;;;;;;;;;;18.90;99.90;;;;;;5006935;28;19922;-79
2023/08/05 09:44:27;;;;;;;;;;;19.00;99.90;;;;;;5006209;28;20248;-78
2023/08/05 09:46:56;;;;;;;;;;;19.10;99.90;;;;;;5006061;28;19922;-77
2023/08/05 09:49:22;;;;;;;;;;;19.30;99.90;;;;;;5006864;28;19921;-78
2023/08/05 09:51:51;;;;;;;;;;;19.40;99.90;;;;;;5007008;28;19922;-78
2023/08/05 09:54:19;;;;;;;;;;;19.50;99.90;;;;;;5006816;28;20232;-78
2023/08/05 09:56:46;;;;;;;;;;;19.60;99.90;;;;;;5005883;28;20256;-78
2023/08/05 09:59:14;;;;;;;;;;;19.70;99.90;;;;;;5006321;28;19982;-79
2023/08/05 10:01:41;;;;;;;;;;;19.70;99.90;;;;;;5007045;28;19981;-78
2023/08/05 10:04:09;;;;;;;;;;;19.80;99.90;;;;;;5006906;28;20213;-78
2023/08/05 10:06:37;;;;;;;;;;;19.90;99.90;;;;;;5006484;28;20005;-78
2023/08/05 10:09:04;;;;;;;;;;;19.90;99.90;;;;;;5002207;28;19986;-80
2023/08/05 10:11:32;;;;;;;;;;;19.90;99.90;;;;;;5005758;28;20121;-77
2023/08/05 10:13:59;;;;;;;;;;;19.90;99.90;;;;;;5001069;28;20410;-77
2023/08/05 10:16:27;;;;;;;;;;;20.00;99.90;;;;;;5006864;28;19988;-77
2023/08/05 10:18:53;;;;;;;;;;;19.90;99.90;;;;;;5004607;28;19965;-78
2023/08/05 10:21:36;;;;;;;;;;;19.90;99.90;;;;;;5005996;28;19989;-77
2023/08/05 10:24:02;;;;;;;;;;;19.90;99.90;;;;;;4998418;28;20149;-82
2023/08/05 10:26:38;;;;;;;;;;;19.90;99.90;;;;;;5006711;28;20512;-81
2023/08/05 10:29:20;;;;;;;;;;;20.00;99.90;;;;;;5006873;28;20164;-80
2023/08/05 10:31:48;;;;;;;;;;;20.10;99.90;;;;;;5011753;28;20125;-82
2023/08/05 10:34:18;;;;;;;;;;;20.30;99.90;;;;;;4997080;28;19928;-82
2023/08/05 10:36:45;;;;;;;;;;;20.50;99.90;;;;;;4993598;28;19922;-79
2023/08/05 10:39:30;;;;;;;;;;;20.60;99.90;;;;;;4989523;28;20273;-75
2023/08/05 10:41:56;;;;;;;;;;;20.70;99.90;;;;;;4988702;28;19922;-76
2023/08/05 10:44:35;;;;;;;;;;;20.80;99.90;;;;;;4998166;28;19944;-78
2023/08/05 10:47:04;;;;;;;;;;;20.90;99.90;;;;;;5009260;28;19957;-77
2023/08/05 10:49:31;;;;;;;;;;;21.00;99.90;;;;;;5009993;28;19957;-77
2023/08/05 10:51:58;;;;;;;;;;;21.10;99.90;;;;;;5009704;28;19922;-77
2023/08/05 10:54:25;;;;;;;;;;;21.00;99.90;;;;;;5012840;28;20233;-78
2023/08/05 10:56:51;;;;;;;;;;;21.10;99.90;;;;;;5013048;28;19922;-79
2023/08/05 10:59:18;;;;;;;;;;;21.10;99.90;;;;;;5010382;28;20008;-77
2023/08/05 11:01:54;;;;;;;;;;;21.20;99.90;;;;;;5008185;28;20233;-78
2023/08/05 11:04:29;;;;;;;;;;;21.20;99.90;;;;;;5011937;28;19977;-77
2023/08/05 11:07:00;;;;;;;;;;;21.20;99.90;;;;;;5011356;28;19952;-79
2023/08/05 11:09:26;;;;;;;;;;;21.20;99.90;;;;;;5007954;28;19981;-78
2023/08/05 11:11:53;;;;;;;;;;;21.30;99.90;;;;;;5010483;28;19953;-78
2023/08/05 11:14:20;;;;;;;;;;;21.20;99.90;;;;;;5009825;28;20118;-79
2023/08/05 11:16:47;;;;;;;;;;;21.10;99.90;;;;;;5009098;28;19965;-79
2023/08/05 11:19:15;;;;;;;;;;;21.10;99.90;;;;;;5008924;28;19976;-79
2023/08/05 11:21:45;;;;;;;;;;;21.10;99.90;;;;;;5007856;28;19921;-78
2023/08/05 11:24:16;;;;;;;;;;;21.20;99.90;;;;;;5007607;28;19957;-79
2023/08/05 11:26:43;;;;;;;;;;;21.30;99.90;;;;;;4992563;28;19989;-78
2023/08/05 11:29:13;;;;;;;;;;;21.40;99.90;;;;;;4999516;28;19921;-78
2023/08/05 11:31:49;;;;;;;;;;;21.60;99.90;;;;;;5008852;28;19972;-78
2023/08/05 11:34:20;;;;;;;;;;;21.70;99.90;;;;;;5008675;28;20208;-78
2023/08/05 11:36:54;;;;;;;;;;;21.80;99.90;;;;;;5007203;28;20013;-78
2023/08/05 11:39:23;;;;;;;;;;;21.90;99.90;;;;;;5008254;28;19985;-78
2023/08/05 11:41:50;;;;;;;;;;;21.90;99.90;;;;;;5007739;28;19962;-77
2023/08/05 11:44:17;;;;;;;;;;;21.80;99.90;;;;;;5000884;28;19922;-79
2023/08/05 11:46:44;;;;;;;;;;;21.80;99.90;;;;;;5007345;28;19964;-78
2023/08/05 11:49:11;;;;;;;;;;;21.60;99.90;;;;;;5008892;28;19922;-77
2023/08/05 11:51:44;;;;;;;;;;;21.60;99.90;;;;;;5007921;28;19957;-77
2023/08/05 11:54:12;;;;;;;;;;;21.50;99.90;;;;;;4999627;28;19981;-78
2023/08/05 11:56:39;;;;;;;;;;;21.60;99.90;;;;;;5002307;28;20116;-78
2023/08/05 11:59:05;;;;;;;;;;;21.80;99.90;;;;;;5006642;28;19921;-78
2023/08/05 12:01:35;;;;;;;;;;;22.00;99.90;;;;;;5007789;28;19984;-78
2023/08/05 12:04:06;;;;;;;;;;;22.30;99.90;;;;;;5008393;28;19954;-79
2023/08/05 12:06:46;;;;;;;;;;;22.60;99.90;;;;;;5006287;28;20268;-78
2023/08/05 12:09:14;;;;;;;;;;;22.50;99.90;;;;;;5008895;28;19953;-79
2023/08/05 12:11:45;;;;;;;;;;;22.50;99.90;;;;;;5010955;28;19953;-79
2023/08/05 12:14:12;;;;;;;;;;;22.40;99.90;;;;;;5011045;28;19957;-80
2023/08/05 12:16:39;;;;;;;;;;;22.40;99.90;;;;;;5008427;28;19989;-79
2023/08/05 12:19:05;;;;;;;;;;;22.40;99.90;;;;;;5010498;28;19972;-79
2023/08/05 12:21:32;;;;;;;;;;;22.50;99.90;;;;;;5010362;28;19921;-79
2023/08/05 12:23:59;;;;;;;;;;;22.50;99.90;;;;;;5007713;28;19928;-75
2023/08/05 12:26:27;;;;;;;;;;;22.70;99.90;;;;;;5007209;28;19993;-77
2023/08/05 12:29:04;;;;;;;;;;;22.80;99.90;;;;;;5004920;28;19981;-76
2023/08/05 12:31:31;;;;;;;;;;;23.00;99.90;;;;;;5005617;28;19960;-76
2023/08/05 12:33:58;;;;;;;;;;;23.10;99.90;;;;;;5006467;28;19953;-77
2023/08/05 12:36:24;;;;;;;;;;;23.10;99.90;;;;;;5007571;28;19988;-77
2023/08/05 12:38:52;;;;;;;;;;;23.10;99.90;;;;;;5009105;28;20001;-77
2023/08/05 12:41:19;;;;;;;;;;;23.10;99.90;;;;;;5008371;28;19922;-77
2023/08/05 12:43:47;;;;;;;;;;;23.20;99.90;;;;;;5008228;28;20175;-77
2023/08/05 12:46:14;;;;;;;;;;;23.20;99.90;;;;;;5002783;28;19921;-77
2023/08/05 12:48:40;;;;;;;;;;;23.20;99.90;;;;;;5006632;28;19928;-77
2023/08/05 12:51:07;;;;;;;;;;;23.10;99.90;;;;;;5006863;28;19960;-76
2023/08/05 12:53:35;;;;;;;;;;;22.90;99.90;;;;;;5006876;28;19949;-76
2023/08/05 12:56:01;;;;;;;;;;;22.90;99.90;;;;;;5005968;28;19922;-76
2023/08/05 12:58:28;;;;;;;;;;;22.80;99.90;;;;;;5006621;28;19996;-77
2023/08/05 13:00:56;;;;;;;;;;;22.90;99.90;;;;;;5006583;28;19989;-77
2023/08/05 13:03:23;;;;;;;;;;;22.90;99.90;;;;;;5006957;28;19922;-76
2023/08/05 13:05:49;;;;;;;;;;;23.00;99.90;;;;;;5007400;28;19921;-77
2023/08/05 13:08:16;;;;;;;;;;;23.00;99.90;;;;;;5005935;28;20113;-78
2023/08/05 13:10:44;;;;;;;;;;;23.00;99.90;;;;;;5006073;28;19989;-77
2023/08/05 13:13:11;;;;;;;;;;;23.10;99.90;;;;;;5008330;28;20390;-77
2023/08/05 13:15:37;;;;;;;;;;;23.10;99.90;;;;;;5007344;28;19981;-76
2023/08/05 13:18:05;;;;;;;;;;;23.10;99.90;;;;;;5007605;28;19921;-77
2023/08/05 13:20:32;;;;;;;;;;;23.40;99.90;;;;;;5007590;28;19985;-77
2023/08/05 13:22:58;;;;;;;;;;;23.60;99.90;;;;;;5006426;28;19921;-77
2023/08/05 13:25:25;;;;;;;;;;;23.70;99.90;;;;;;5007036;28;19921;-77
2023/08/05 13:27:52;;;;;;;;;;;23.70;99.90;;;;;;4989012;28;20405;-77
2023/08/05 13:30:20;;;;;;;;;;;23.70;99.90;;;;;;5006711;28;19921;-77
2023/08/05 13:32:47;;;;;;;;;;;23.80;99.90;;;;;;5005614;28;19926;-76
2023/08/05 13:35:15;;;;;;;;;;;24.00;99.90;;;;;;5006673;28;19953;-77
2023/08/05 13:37:42;;;;;;;;;;;24.00;99.90;;;;;;5006487;28;19985;-77
2023/08/05 13:40:09;;;;;;;;;;;24.20;99.90;;;;;;5006886;28;20206;-77
2023/08/05 13:42:35;;;;;;;;;;;23.80;99.90;;;;;;5006420;28;19956;-76
2023/08/05 13:45:02;;;;;;;;;;;23.40;99.90;;;;;;5007547;28;19921;-77
2023/08/05 13:47:29;;;;;;;;;;;23.10;99.90;;;;;;5005910;28;19985;-77
2023/08/05 13:49:57;;;;;;;;;;;22.80;99.90;;;;;;5003915;28;19922;-78
2023/08/05 13:52:25;;;;;;;;;;;22.60;99.90;;;;;;5007626;28;19953;-77
2023/08/05 13:54:52;;;;;;;;;;;22.50;99.90;;;;;;5006862;28;19993;-78
2023/08/05 13:57:18;;;;;;;;;;;22.50;99.90;;;;;;5006483;28;19992;-77
2023/08/05 13:59:45;;;;;;;;;;;22.40;99.90;;;;;;5002870;28;20298;-78
2023/08/05 14:02:11;;;;;;;;;;;22.30;99.90;;;;;;5010098;28;19929;-78
2023/08/05 14:04:38;;;;;;;;;;;22.30;99.90;;;;;;5013800;28;19928;-77
2023/08/05 14:07:05;;;;;;;;;;;22.20;99.90;;;;;;5013805;28;19961;-78
2023/08/05 14:09:33;;;;;;;;;;;22.20;99.90;;;;;;5004369;28;19977;-78
2023/08/05 14:12:00;;;;;;;;;;;22.20;99.90;;;;;;5014623;28;19930;-78
2023/08/05 14:14:27;;;;;;;;;;;22.20;99.90;;;;;;5012147;28;19922;-77
2023/08/05 14:16:53;;;;;;;;;;;22.30;99.90;;;;;;5002963;28;19921;-76
2023/08/05 14:19:20;;;;;;;;;;;22.30;99.90;;;;;;5009959;28;19960;-75
2023/08/05 14:21:46;;;;;;;;;;;22.30;99.90;;;;;;5009530;28;19921;-76